Time;durP1;ratioP1;P1;durP2;ratioP2;P2;SDS_P1;SDS_P2;PMS_P1;PMS_P2;Temp;Humidity;BMP_temperature;BMP_pressure;BME280_temperature;BME280_humidity;BME280_pressure;Samples;Min_cycle;Max_cycle;Signal;HPM_P1;HPM_P2
2023/02/01 00:02:25;;;;;;;;;12.50;9.00;;;;;0.94;100.00;97828.09;4918804;28;102197;-76
2023/02/01 00:04:52;;;;;;;;;12.00;9.50;;;;;0.97;100.00;97828.59;4911487;28;102334;-76
2023/02/01 00:07:19;;;;;;;;;13.50;11.00;;;;;0.61;100.00;97766.75;4917177;28;103941;-76
2023/02/01 00:09:46;;;;;;;;;11.25;11.00;;;;;0.99;100.00;97831.91;4916257;28;102480;-78
2023/02/01 00:12:13;;;;;;;;;5.25;5.25;;;;;0.99;100.00;97831.13;4914867;28;104337;-77
2023/02/01 00:14:40;;;;;;;;;12.00;10.00;;;;;0.98;100.00;97834.75;4918442;28;102310;-76
2023/02/01 00:17:07;;;;;;;;;12.75;10.00;;;;;0.97;100.00;97833.94;4913330;28;104015;-78
2023/02/01 00:19:34;;;;;;;;;13.00;9.75;;;;;0.99;100.00;97831.91;4914050;28;101988;-79
2023/02/01 00:22:01;;;;;;;;;10.00;8.50;;;;;0.97;100.00;97828.59;4923168;28;101986;-75
2023/02/01 00:24:28;;;;;;;;;13.00;9.25;;;;;0.96;100.00;97818.09;4914663;28;102269;-76
2023/02/01 00:26:55;;;;;;;;;10.50;9.25;;;;;0.95;100.00;97816.44;4913157;28;108899;-76
2023/02/01 00:29:22;;;;;;;;;11.00;8.00;;;;;0.94;100.00;97812.97;4918195;28;102223;-77
2023/02/01 00:31:51;;;;;;;;;9.75;9.50;;;;;0.85;100.00;97804.13;4916486;28;102039;-80
2023/02/01 00:34:19;;;;;;;;;10.00;9.00;;;;;0.97;100.00;97812.63;4914987;28;101971;-80
2023/02/01 00:36:46;;;;;;;;;10.75;9.75;;;;;0.96;100.00;97802.97;4906847;28;104057;-79
2023/02/01 00:39:14;;;;;;;;;8.75;5.50;;;;;1.01;100.00;97807.81;4915022;28;102536;-80
2023/02/01 00:41:41;;;;;;;;;11.50;8.50;;;;;0.72;100.00;97762.97;4909628;28;102287;-77
2023/02/01 00:44:08;;;;;;;;;8.75;8.00;;;;;1.06;100.00;97818.81;4908535;28;102050;-80
2023/02/01 00:46:36;;;;;;;;;10.00;8.00;;;;;0.80;100.00;97769.16;4911328;28;104255;-79
2023/02/01 00:49:03;;;;;;;;;12.00;10.50;;;;;1.01;99.99;97802.50;4911855;28;102104;-76
2023/02/01 00:51:31;;;;;;;;;10.25;9.25;;;;;1.09;100.00;97805.19;4911970;28;102267;-78
2023/02/01 00:53:58;;;;;;;;;7.50;5.75;;;;;1.20;99.82;97810.22;4917310;28;102154;-79
2023/02/01 00:56:29;;;;;;;;;8.50;6.25;;;;;1.24;99.47;97822.22;4909564;28;108550;-78
2023/02/01 00:58:56;;;;;;;;;6.75;6.00;;;;;1.28;99.70;97820.88;4911858;28;102174;-80
2023/02/01 01:01:25;;;;;;;;;7.25;6.25;;;;;1.33;99.41;97837.22;4913951;28;102124;-77
2023/02/01 01:03:55;;;;;;;;;9.75;8.50;;;;;1.34;99.22;97853.03;4914144;28;102115;-78
2023/02/01 01:06:26;;;;;;;;;15.00;11.00;;;;;1.30;98.50;97872.16;4914939;28;103866;-78
2023/02/01 01:08:56;;;;;;;;;7.75;6.50;;;;;1.38;98.59;97895.31;4894348;28;102316;-78
2023/02/01 01:11:26;;;;;;;;;12.50;9.50;;;;;1.40;98.08;97915.47;4894716;28;102721;-77
2023/02/01 01:13:56;;;;;;;;;8.00;8.00;;;;;1.07;99.72;97889.72;4894956;28;102264;-76
2023/02/01 01:16:25;;;;;;;;;10.75;9.50;;;;;0.89;100.00;97885.28;4890941;28;104069;-76
2023/02/01 01:18:53;;;;;;;;;11.00;10.00;;;;;0.99;100.00;97895.00;4891540;28;102344;-76
2023/02/01 01:21:20;;;;;;;;;13.75;12.50;;;;;0.99;100.00;97879.81;4890936;28;102255;-76
2023/02/01 01:23:47;;;;;;;;;14.50;8.00;;;;;1.01;100.00;97863.72;4895895;28;102177;-78
2023/02/01 01:26:18;;;;;;;;;12.50;11.50;;;;;0.98;99.83;97861.38;4895158;28;104156;-77
2023/02/01 01:28:45;;;;;;;;;10.00;9.75;;;;;0.99;99.28;97863.84;4890157;28;102559;-77
2023/02/01 01:31:15;;;;;;;;;9.75;9.00;;;;;0.94;99.04;97873.34;4891609;28;102416;-75
2023/02/01 01:33:43;;;;;;;;;7.00;6.75;;;;;0.87;99.16;97847.34;4878370;28;101980;-75
2023/02/01 01:36:11;;;;;;;;;8.50;6.00;;;;;0.91;97.76;97871.81;4890693;28;104269;-76
2023/02/01 01:38:40;;;;;;;;;8.25;6.00;;;;;0.85;96.67;97873.31;4891381;28;102469;-76
2023/02/01 01:41:11;;;;;;;;;4.00;3.50;;;;;0.90;97.52;97889.59;4895285;28;102391;-78
2023/02/01 01:43:54;;;;;;;;;6.50;5.00;;;;;0.89;96.62;97864.00;4896708;28;102903;-76
2023/02/01 01:46:27;;;;;;;;;5.00;4.00;;;;;0.94;96.62;97870.69;4893497;28;104167;-77
2023/02/01 01:49:09;;;;;;;;;4.00;4.00;;;;;0.96;95.31;97880.16;4893796;28;102464;-79
2023/02/01 01:51:47;;;;;;;;;4.00;3.50;;;;;0.96;95.21;97889.97;4893541;28;102359;-78
2023/02/01 01:54:21;;;;;;;;;3.25;1.75;;;;;0.95;96.41;97889.13;4898417;28;102303;-77
2023/02/01 01:56:53;;;;;;;;;4.00;2.00;;;;;0.87;96.70;97891.75;4896420;28;104193;-78
2023/02/01 01:59:23;;;;;;;;;0.50;0.00;;;;;0.87;95.94;97865.97;4896300;28;102306;-79
2023/02/01 02:01:51;;;;;;;;;0.25;0.00;;;;;0.93;95.17;97874.31;4897219;28;102188;-77
2023/02/01 02:04:19;;;;;;;;;3.00;1.00;;;;;0.89;95.14;97864.00;4892762;28;102292;-79
2023/02/01 02:07:18;;;;;;;;;2.75;1.00;;;;;0.86;94.72;97861.63;4894399;28;104169;-77
2023/02/01 02:10:10;;;;;;;;;1.75;1.00;;;;;0.87;96.14;97865.13;4908092;28;102294;-78
2023/02/01 02:12:59;;;;;;;;;3.00;2.00;;;;;0.87;95.72;97900.56;4912713;28;103683;-76
2023/02/01 02:16:12;;;;;;;;;0.25;0.00;;;;;0.84;96.34;97902.72;4915811;28;102445;-77
2023/02/01 02:19:00;;;;;;;;;1.00;0.50;;;;;0.84;97.29;97900.06;4912197;28;107561;-78
2023/02/01 02:22:03;;;;;;;;;1.00;1.00;;;;;0.77;97.89;97896.34;4911217;28;103052;-77
2023/02/01 02:25:00;;;;;;;;;1.00;1.00;;;;;0.73;97.78;97890.50;4914529;28;102916;-78
2023/02/01 02:27:30;;;;;;;;;1.00;0.00;;;;;0.79;97.58;97895.22;4918170;28;102985;-78
2023/02/01 02:30:35;;;;;;;;;3.50;2.00;;;;;0.75;97.24;97901.84;4916440;28;108697;-77
2023/02/01 02:33:02;;;;;;;;;1.00;1.00;;;;;0.74;98.09;97889.53;4908471;28;102152;-76
2023/02/01 02:35:50;;;;;;;;;3.50;1.50;;;;;0.77;97.72;97899.84;4915665;28;102490;-77
2023/02/01 02:38:25;;;;;;;;;4.00;1.00;;;;;0.80;97.98;97899.53;4916824;28;102283;-77
2023/02/01 02:41:00;;;;;;;;;2.25;2.25;;;;;0.75;98.55;97888.53;4918302;28;104041;-76
2023/02/01 02:54:45;;;;;;;;;1.00;1.00;;;;;0.72;99.07;97898.66;4915730;28;102353;-78
2023/02/01 02:55:40;;;;;;;;;1.25;1.00;;;;;0.69;98.39;97899.78;4921569;28;102290;-76
2023/02/01 03:04:08;;;;;;;;;5.00;2.00;;;;;0.73;98.51;97895.81;4914701;28;109843;-77
2023/02/01 03:06:37;;;;;;;;;4.50;4.50;;;;;0.71;98.70;97892.50;4917388;28;103267;-78
2023/02/01 03:09:13;;;;;;;;;4.00;4.00;;;;;0.62;98.85;97888.13;4915056;28;102446;-77
2023/02/01 03:14:32;;;;;;;;;4.00;4.00;;;;;0.72;97.95;97902.13;4916116;28;108853;-78
2023/02/01 03:17:10;;;;;;;;;4.50;3.75;;;;;0.77;98.29;97897.19;4917689;28;102350;-77
2023/02/01 03:19:43;;;;;;;;;5.00;4.00;;;;;0.77;97.68;97906.97;4913461;28;102168;-78
2023/02/01 03:22:17;;;;;;;;;7.50;2.00;;;;;0.78;98.49;97914.81;4918379;28;104219;-78
2023/02/01 03:24:58;;;;;;;;;6.00;2.00;;;;;0.77;98.23;97907.81;4910504;28;104074;-80
2023/02/01 03:27:35;;;;;;;;;3.50;2.00;;;;;0.82;98.32;97910.00;4913252;28;102439;-79
2023/02/01 03:30:17;;;;;;;;;3.75;2.00;;;;;0.84;97.83;97919.53;4915641;28;102222;-78
2023/02/01 03:32:58;;;;;;;;;3.00;2.00;;;;;0.85;98.32;97915.88;4916855;28;102269;-77
2023/02/01 03:35:33;;;;;;;;;4.25;2.50;;;;;0.80;98.06;97914.66;4914506;28;108731;-78
2023/02/01 03:38:25;;;;;;;;;4.00;2.00;;;;;0.83;97.78;97901.03;4915410;28;102119;-73
2023/02/01 03:41:02;;;;;;;;;5.00;2.00;;;;;0.83;97.98;97909.88;4914686;28;102139;-79
2023/02/01 03:43:37;;;;;;;;;3.00;2.00;;;;;0.86;97.54;97922.84;4913533;28;102113;-75
2023/02/01 03:46:10;;;;;;;;;6.00;5.00;;;;;0.87;97.86;97921.88;4910643;28;108480;-79
2023/02/01 03:48:39;;;;;;;;;5.25;4.00;;;;;0.85;98.20;97926.53;4914310;28;101981;-78
2023/02/01 03:51:08;;;;;;;;;5.00;3.50;;;;;0.86;98.29;97922.84;4909894;28;102317;-77
2023/02/01 03:53:36;;;;;;;;;6.50;5.25;;;;;0.69;99.22;97902.44;4915048;28;102395;-78
2023/02/01 03:56:05;;;;;;;;;4.50;3.50;;;;;0.73;99.03;97911.78;4910502;28;104692;-77
2023/02/01 03:58:33;;;;;;;;;2.00;2.00;;;;;0.70;99.68;97921.91;4914678;28;102409;-76
2023/02/01 04:01:00;;;;;;;;;4.25;4.25;;;;;0.56;100.00;97903.84;4913562;28;102068;-77
2023/02/01 04:03:28;;;;;;;;;4.75;4.00;;;;;0.58;100.00;97916.03;4914397;28;102074;-77
2023/02/01 04:05:55;;;;;;;;;9.75;5.00;;;;;0.60;100.00;97906.03;4909621;28;104025;-77
2023/02/01 04:08:23;;;;;;;;;8.00;7.50;;;;;0.54;100.00;97911.97;4912196;28;102355;-76
2023/02/01 04:10:50;;;;;;;;;5.00;5.00;;;;;0.54;100.00;97917.28;4911855;28;102575;-76
2023/02/01 04:13:17;;;;;;;;;8.00;6.00;;;;;0.59;100.00;97909.69;4915850;28;102110;-77
2023/02/01 04:15:46;;;;;;;;;6.00;5.75;;;;;0.56;100.00;97899.38;4907191;28;104080;-77
2023/02/01 04:18:13;;;;;;;;;6.00;6.00;;;;;0.59;100.00;97903.53;4912393;28;102423;-78
2023/02/01 04:20:40;;;;;;;;;5.25;5.00;;;;;0.58;100.00;97905.38;4914970;28;102894;-78
2023/02/01 04:23:07;;;;;;;;;4.25;3.00;;;;;0.54;100.00;97901.34;4916611;28;101986;-78
2023/02/01 04:25:33;;;;;;;;;4.50;2.50;;;;;0.63;100.00;97916.38;4907284;28;104136;-76
2023/02/01 04:28:00;;;;;;;;;5.00;4.00;;;;;0.05;100.00;97806.25;4914604;28;102483;-75
2023/02/01 04:30:28;;;;;;;;;4.25;2.00;;;;;0.58;100.00;97902.72;4919155;28;102122;-78
2023/02/01 04:32:55;;;;;;;;;5.50;4.00;;;;;0.61;100.00;97909.53;4915400;28;102326;-77
2023/02/01 04:35:22;;;;;;;;;8.00;6.00;;;;;0.61;100.00;97910.38;4910859;28;104001;-76
2023/02/01 04:37:49;;;;;;;;;5.00;4.00;;;;;0.60;100.00;97903.38;4914742;28;102252;-78
2023/02/01 04:40:15;;;;;;;;;5.50;5.00;;;;;0.58;100.00;97917.84;4911783;28;102547;-79
2023/02/01 04:42:42;;;;;;;;;2.00;2.00;;;;;0.56;100.00;97903.84;4916341;28;102324;-78
2023/02/01 04:45:10;;;;;;;;;3.50;3.50;;;;;0.27;100.00;97861.63;4912447;28;104191;-77
2023/02/01 04:47:37;;;;;;;;;5.75;2.00;;;;;0.52;100.00;97913.97;4910779;28;101987;-77
2023/02/01 04:50:05;;;;;;;;;4.75;2.00;;;;;0.53;100.00;97909.50;4909240;28;102276;-77
2023/02/01 04:52:32;;;;;;;;;3.50;3.50;;;;;0.58;100.00;97901.88;4914693;28;102294;-80
2023/02/01 04:55:00;;;;;;;;;8.50;6.50;;;;;0.59;100.00;97907.03;4916189;28;104030;-78
2023/02/01 04:57:27;;;;;;;;;12.00;8.50;;;;;0.55;100.00;97918.97;4913304;28;102517;-78
2023/02/01 04:59:54;;;;;;;;;8.25;6.50;;;;;0.58;100.00;97913.38;4913009;28;102335;-78
2023/02/01 05:02:21;;;;;;;;;8.75;6.50;;;;;0.61;100.00;97907.72;4914909;28;102454;-78
2023/02/01 05:04:48;;;;;;;;;6.50;6.00;;;;;0.68;100.00;97918.56;4910516;28;104133;-84
2023/02/01 05:07:15;;;;;;;;;8.00;6.00;;;;;0.66;99.76;97910.75;4911836;28;102546;-81
2023/02/01 05:09:42;;;;;;;;;5.25;5.25;;;;;0.71;100.00;97907.63;4910654;28;102192;-81
2023/02/01 05:14:55;;;;;;;;;5.25;4.50;;;;;0.77;98.96;97912.31;4912282;28;112700;-81
2023/02/01 05:17:22;;;;;;;;;8.25;6.00;;;;;0.77;98.62;97913.13;4910831;28;102733;-76
2023/02/01 05:19:49;;;;;;;;;6.00;5.00;;;;;0.81;98.30;97911.03;4911409;28;102060;-76
2023/02/01 05:22:16;;;;;;;;;7.75;7.75;;;;;0.75;98.04;97899.19;4914161;28;102166;-76
2023/02/01 05:24:43;;;;;;;;;8.75;8.25;;;;;0.79;98.25;97913.84;4907190;28;103785;-76
2023/02/01 05:27:10;;;;;;;;;10.50;7.00;;;;;0.77;98.49;97899.84;4909118;28;108385;-76
2023/02/01 05:29:37;;;;;;;;;10.33;9.00;;;;;0.77;99.11;97907.81;4914806;28;101995;-75
2023/02/01 05:32:04;;;;;;;;;4.33;2.00;;;;;0.73;98.63;97903.81;4911177;28;102430;-76
2023/02/01 05:34:47;;;;;;;;;16.67;13.00;;;;;0.73;98.48;97905.63;4905745;28;104097;-76
2023/02/01 05:37:14;;;;;;;;;15.00;14.33;;;;;0.71;98.95;97907.63;4910802;28;102327;-76
2023/02/01 05:39:41;;;;;;;;;8.75;8.50;;;;;0.67;98.55;97903.63;4911841;28;102095;-76
2023/02/01 05:42:08;;;;;;;;;16.33;12.67;;;;;0.66;98.44;97910.75;4911740;28;102097;-76
2023/02/01 05:44:35;;;;;;;;;16.00;12.00;;;;;0.64;98.53;97901.25;4910555;28;104052;-79
2023/02/01 05:47:02;;;;;;;;;14.75;12.25;;;;;0.68;98.15;97911.41;4913392;28;102296;-76
2023/02/01 05:49:29;;;;;;;;;12.75;9.25;;;;;0.71;97.85;97903.16;4916729;28;102170;-77
2023/02/01 05:51:56;;;;;;;;;12.00;11.00;;;;;0.74;97.74;97901.97;4908914;28;102690;-77
2023/02/01 05:54:26;;;;;;;;;7.00;6.00;;;;;0.75;97.92;97901.84;4913720;28;109770;-77
2023/02/01 05:56:53;;;;;;;;;15.75;10.25;;;;;0.74;97.26;97908.13;4906890;28;102720;-71
2023/02/01 05:59:20;;;;;;;;;13.00;10.75;;;;;0.79;97.09;97899.69;4912539;28;103389;-70
2023/02/01 06:01:47;;;;;;;;;11.00;11.00;;;;;0.78;97.11;97903.34;4909486;28;102381;-70
2023/02/01 06:04:14;;;;;;;;;13.00;10.00;;;;;0.77;96.71;97891.00;4912375;28;104033;-70
2023/02/01 06:06:41;;;;;;;;;14.00;10.00;;;;;0.83;96.04;97891.25;4905315;28;102603;-70
2023/02/01 06:09:08;;;;;;;;;12.25;10.50;;;;;0.85;95.13;97897.25;4909152;28;103909;-70
2023/02/01 06:11:34;;;;;;;;;16.25;10.00;;;;;0.88;95.04;97894.25;4904033;28;102732;-70
2023/02/01 06:14:01;;;;;;;;;20.25;14.25;;;;;0.89;95.05;97893.28;4902543;28;104189;-70
2023/02/01 06:16:28;;;;;;;;;15.00;11.33;;;;;0.95;94.78;97896.28;4909527;28;102413;-70
2023/02/01 06:18:55;;;;;;;;;16.33;9.67;;;;;0.93;94.41;97904.44;4913807;28;109369;-70
2023/02/01 06:21:25;;;;;;;;;21.50;13.75;;;;;0.94;94.29;97903.44;4905060;28;102686;-70
2023/02/01 06:23:53;;;;;;;;;14.75;11.00;;;;;0.96;94.21;97903.28;4912937;28;104080;-70
2023/02/01 06:26:21;;;;;;;;;16.00;12.00;;;;;0.96;93.62;97905.94;4914046;28;106279;-70
2023/02/01 06:28:49;;;;;;;;;21.33;16.00;;;;;0.99;93.31;97911.78;4914324;28;102342;-70
2023/02/01 06:31:15;;;;;;;;;12.75;11.00;;;;;1.04;93.47;97914.78;4915238;28;102327;-70
2023/02/01 06:33:42;;;;;;;;;15.75;12.25;;;;;1.08;93.40;97916.16;4911189;28;104200;-70
2023/02/01 06:36:12;;;;;;;;;24.33;19.67;;;;;1.05;93.49;97915.63;4917254;28;102339;-71
2023/02/01 06:38:39;;;;;;;;;24.00;16.00;;;;;1.02;93.47;97905.31;4903674;28;102173;-71
2023/02/01 06:41:06;;;;;;;;;17.00;13.67;;;;;0.84;92.82;97873.44;4916382;28;102220;-71
2023/02/01 06:43:33;;;;;;;;;14.00;10.00;;;;;1.12;93.12;97908.69;4913389;28;104015;-71
2023/02/01 06:46:06;;;;;;;;;16.25;12.00;;;;;1.15;92.07;97911.03;4920713;28;102812;-70
2023/02/01 06:48:34;;;;;;;;;7.75;4.25;;;;;1.16;92.49;97907.38;4911928;28;102128;-71
2023/02/01 06:51:01;;;;;;;;;19.50;13.75;;;;;1.15;91.72;97914.53;4906046;28;104037;-72
2023/02/01 06:53:28;;;;;;;;;14.25;13.00;;;;;1.14;91.97;97909.34;4918625;28;104042;-70
2023/02/01 06:56:00;;;;;;;;;12.25;9.00;;;;;1.16;91.08;97907.38;4916415;28;102164;-70
2023/02/01 06:58:31;;;;;;;;;12.25;10.00;;;;;1.23;91.12;97903.06;4916758;28;101994;-70
2023/02/01 07:01:05;;;;;;;;;14.00;10.50;;;;;1.27;90.78;97899.09;4916156;28;102390;-71
2023/02/01 07:03:32;;;;;;;;;9.00;8.00;;;;;1.29;90.37;97891.81;4913207;28;108930;-70
2023/02/01 07:05:59;;;;;;;;;16.25;10.00;;;;;1.37;89.47;97905.16;4918312;28;102219;-71
2023/02/01 07:08:31;;;;;;;;;12.50;11.25;;;;;1.42;89.54;97886.84;4925776;28;102157;-71
2023/02/01 07:11:09;;;;;;;;;9.75;8.25;;;;;1.41;89.27;97876.34;4930563;28;102309;-70
2023/02/01 07:13:36;;;;;;;;;9.25;9.00;;;;;1.50;88.22;97896.69;4901441;28;108401;-70
2023/02/01 07:16:10;;;;;;;;;10.50;9.25;;;;;1.51;88.11;97899.19;4926652;28;102319;-72
2023/02/01 07:18:38;;;;;;;;;10.50;8.25;;;;;1.58;88.26;97900.22;4924218;28;101995;-72
2023/02/01 07:21:05;;;;;;;;;18.50;12.25;;;;;1.57;88.40;97905.72;4922495;28;102710;-70
2023/02/01 07:23:32;;;;;;;;;9.50;9.50;;;;;1.52;87.92;97895.56;4931376;28;104407;-71
2023/02/01 07:26:03;;;;;;;;;12.00;7.75;;;;;1.63;88.32;97911.22;4929361;28;101912;-70
2023/02/01 07:28:32;;;;;;;;;16.00;11.25;;;;;1.60;88.33;97906.22;4921431;28;103259;-70
2023/02/01 07:31:20;;;;;;;;;8.50;6.75;;;;;1.62;89.15;97906.06;4922914;28;102779;-72
2023/02/01 07:33:51;;;;;;;;;9.00;7.50;;;;;1.60;88.56;97911.56;4927191;28;108607;-71
2023/02/01 07:36:19;;;;;;;;;5.75;4.25;;;;;1.52;89.35;97889.38;4927930;28;102212;-71
2023/02/01 07:38:49;;;;;;;;;5.25;5.00;;;;;1.59;89.43;97909.88;4922235;28;102274;-71
2023/02/01 07:41:17;;;;;;;;;9.00;6.00;;;;;1.58;90.17;97908.22;4927209;28;102246;-71
2023/02/01 07:43:44;;;;;;;;;9.00;8.00;;;;;1.57;89.01;97909.22;4923457;28;104035;-71
2023/02/01 07:46:11;;;;;;;;;19.50;16.50;;;;;1.53;90.42;97910.50;4925284;28;102466;-71
2023/02/01 07:48:38;;;;;;;;;28.67;24.33;;;;;1.56;90.14;97910.22;4925373;28;102070;-71
2023/02/01 07:51:10;;;;;;;;;49.33;42.00;;;;;1.53;90.35;97907.03;4916559;28;101964;-71
2023/02/01 07:53:38;;;;;;;;;30.67;27.00;;;;;1.52;90.42;97902.72;4919674;28;104035;-71
2023/02/01 07:56:14;;;;;;;;;32.33;26.00;;;;;1.51;90.96;97904.53;4921695;28;102308;-70
2023/02/01 07:58:42;;;;;;;;;20.50;19.50;;;;;1.52;91.34;97908.88;4916446;28;102089;-71
2023/02/01 08:01:20;;;;;;;;;14.00;12.33;;;;;1.55;91.03;97908.53;4926205;28;102441;-71
2023/02/01 08:03:49;;;;;;;;;13.50;12.75;;;;;1.48;91.18;97891.53;4921526;28;104030;-71
2023/02/01 08:06:19;;;;;;;;;13.50;11.50;;;;;1.60;91.27;97911.56;4932187;28;102119;-71
2023/02/01 08:08:47;;;;;;;;;19.50;17.00;;;;;1.58;91.23;97908.22;4926064;28;103666;-70
2023/02/01 08:11:15;;;;;;;;;10.75;10.00;;;;;1.65;91.11;97911.91;4932857;28;102385;-71
2023/02/01 08:13:42;;;;;;;;;21.75;16.00;;;;;1.61;90.74;97902.56;4926460;28;104024;-71
2023/02/01 08:16:11;;;;;;;;;17.75;12.25;;;;;1.76;91.36;97902.75;4931542;28;102072;-71
2023/02/01 08:18:39;;;;;;;;;19.25;13.75;;;;;1.79;90.09;97899.78;4917448;28;102574;-71
2023/02/01 08:21:10;;;;;;;;;16.00;11.25;;;;;1.85;90.38;97901.78;4932170;28;102260;-71
2023/02/01 08:23:39;;;;;;;;;15.50;13.00;;;;;1.91;90.74;97905.63;4925244;28;104266;-71
2023/02/01 08:26:15;;;;;;;;;6.25;5.00;;;;;1.92;90.42;97899.31;4925140;28;102132;-70
2023/02/01 08:28:48;;;;;;;;;10.25;9.00;;;;;1.92;89.43;97909.97;4929558;28;102238;-71
2023/02/01 08:31:17;;;;;;;;;10.00;9.25;;;;;1.93;89.54;97896.50;4932137;28;102482;-71
2023/02/01 08:33:48;;;;;;;;;17.75;13.75;;;;;1.96;89.49;97895.31;4924118;28;104239;-71
2023/02/01 08:36:16;;;;;;;;;0.00;0.00;;;;;1.96;89.32;97896.16;4932835;28;102207;-71
2023/02/01 08:38:43;;;;;;;;;18.75;9.75;;;;;1.99;88.82;97889.63;4909101;28;102086;-71
2023/02/01 08:41:13;;;;;;;;;20.50;17.50;;;;;2.04;89.62;97903.31;4920420;28;102758;-71
2023/02/01 08:43:41;;;;;;;;;19.50;17.25;;;;;2.08;89.61;97894.00;4923619;28;104043;-70
2023/02/01 08:46:09;;;;;;;;;17.00;13.00;;;;;2.15;89.03;97895.00;4926637;28;102342;-71
2023/02/01 08:48:37;;;;;;;;;18.75;11.75;;;;;2.21;88.33;97889.00;4911147;28;102223;-70
2023/02/01 08:51:05;;;;;;;;;18.50;15.25;;;;;2.25;87.78;97898.34;4923166;28;102362;-71
2023/02/01 08:53:33;;;;;;;;;34.00;28.67;;;;;2.26;88.10;97900.00;4920967;28;104012;-71
2023/02/01 08:56:00;;;;;;;;;28.00;23.75;;;;;2.28;88.13;97902.50;4924475;28;102078;-71
2023/02/01 08:58:27;;;;;;;;;41.00;34.00;;;;;2.29;87.29;97906.84;4926260;28;102034;-70
2023/02/01 09:00:55;;;;;;;;;33.75;26.25;;;;;2.29;87.24;97885.50;4925554;28;102071;-71
2023/02/01 09:03:22;;;;;;;;;27.00;24.75;;;;;2.37;86.86;97889.00;4922958;28;104044;-71
2023/02/01 09:05:49;;;;;;;;;28.50;25.25;;;;;2.49;86.76;97895.66;4929629;28;102578;-70
2023/02/01 09:08:18;;;;;;;;;37.33;31.00;;;;;2.40;86.42;97879.84;4911965;28;102262;-71
2023/02/01 09:10:45;;;;;;;;;36.25;27.75;;;;;2.45;86.14;97891.66;4915741;28;102432;-71
2023/02/01 09:13:12;;;;;;;;;31.00;25.50;;;;;2.53;86.29;97889.00;4915703;28;103906;-71
2023/02/01 09:15:39;;;;;;;;;26.75;20.25;;;;;2.64;85.39;97887.81;4916796;28;102385;-71
2023/02/01 09:18:06;;;;;;;;;33.00;26.00;;;;;2.65;84.38;97890.34;4914390;28;103951;-71
2023/02/01 09:20:33;;;;;;;;;23.00;18.75;;;;;2.67;83.82;97888.31;4916708;28;102738;-71
2023/02/01 09:23:00;;;;;;;;;23.25;17.75;;;;;2.68;82.95;97892.66;4917354;28;104024;-71
2023/02/01 09:25:28;;;;;;;;;16.25;15.00;;;;;2.67;82.51;97887.47;4916807;28;101903;-70
2023/02/01 09:27:55;;;;;;;;;19.50;15.75;;;;;2.68;83.63;97886.47;4915040;28;102407;-71
2023/02/01 09:30:22;;;;;;;;;13.50;11.75;;;;;2.56;84.42;97872.66;4914427;28;105031;-71
2023/02/01 09:32:49;;;;;;;;;13.00;11.75;;;;;2.74;84.76;97882.31;4892633;28;104006;-71
2023/02/01 09:35:16;;;;;;;;;14.25;12.50;;;;;2.80;84.11;97884.28;4916279;28;102419;-71
2023/02/01 09:37:43;;;;;;;;;17.50;11.75;;;;;2.82;82.98;97876.94;4915564;28;102089;-71
2023/02/01 09:40:16;;;;;;;;;10.25;7.00;;;;;2.89;84.20;97877.94;4915170;28;102050;-72
2023/02/01 09:42:49;;;;;;;;;13.00;11.50;;;;;2.94;83.74;97873.75;4914748;28;103990;-72
2023/02/01 09:45:27;;;;;;;;;13.00;11.00;;;;;2.89;84.50;97877.94;4909278;28;102109;-72
2023/02/01 09:48:00;;;;;;;;;14.50;12.25;;;;;2.76;84.43;97877.63;4910990;28;102159;-72
2023/02/01 09:50:44;;;;;;;;;18.50;16.00;;;;;2.48;84.54;97824.63;4915530;28;102039;-71
2023/02/01 09:53:11;;;;;;;;;16.75;14.00;;;;;2.84;83.27;97869.59;4912847;28;109121;-72
2023/02/01 09:55:50;;;;;;;;;15.75;12.50;;;;;2.40;85.23;97808.63;4915429;28;101862;-72
2023/02/01 09:58:40;;;;;;;;;16.25;13.00;;;;;2.71;84.89;97859.44;4915481;28;106525;-72
2023/02/01 10:01:34;;;;;;;;;15.00;12.25;;;;;2.72;84.94;97866.47;4910801;28;102297;-72
2023/02/01 10:04:14;;;;;;;;;15.00;11.00;;;;;2.82;84.52;97856.44;4913559;28;108519;-72
2023/02/01 10:06:55;;;;;;;;;14.75;11.75;;;;;2.94;84.09;97855.06;4913595;28;102275;-73
2023/02/01 10:09:32;;;;;;;;;10.00;8.25;;;;;3.08;84.00;97861.53;4911240;28;102252;-72
2023/02/01 10:12:08;;;;;;;;;9.50;7.75;;;;;3.12;84.56;97862.84;4920313;28;102912;-72
2023/02/01 10:15:32;;;;;;;;;11.00;10.00;;;;;3.16;83.84;97856.16;4911243;28;107913;-73
2023/02/01 10:18:22;;;;;;;;;10.50;7.00;;;;;3.08;83.50;97846.34;4830738;29;102406;-70
2023/02/01 10:20:55;;;;;;;;;13.75;11.00;;;;;3.19;84.26;97857.66;4833823;29;102192;-71
2023/02/01 10:23:40;;;;;;;;;15.75;14.00;;;;;3.21;83.84;97856.47;4891106;28;102345;-71
2023/02/01 10:26:30;;;;;;;;;11.50;10.00;;;;;3.09;84.62;97833.81;4917889;28;108864;-71
2023/02/01 10:29:04;;;;;;;;;12.50;11.75;;;;;3.15;84.66;97847.28;4903932;28;101979;-70
2023/02/01 10:31:37;;;;;;;;;17.75;14.00;;;;;3.13;85.64;97840.47;4917111;28;101913;-71
2023/02/01 10:34:31;;;;;;;;;14.50;11.00;;;;;3.10;85.82;97828.31;4920197;28;102227;-70
2023/02/01 10:37:19;;;;;;;;;16.00;13.00;;;;;3.12;85.09;97836.97;4916572;28;108700;-70
2023/02/01 10:39:49;;;;;;;;;10.25;9.50;;;;;3.13;85.67;97833.31;4912532;28;102976;-71
2023/02/01 10:42:25;;;;;;;;;9.00;8.25;;;;;3.14;85.37;97834.97;4915639;28;102186;-70
2023/02/01 10:44:56;;;;;;;;;9.75;8.50;;;;;3.20;85.79;97837.97;4915355;28;102324;-72
2023/02/01 10:47:23;;;;;;;;;17.00;10.50;;;;;3.11;86.19;97839.81;4918013;28;103965;-72
2023/02/01 10:50:14;;;;;;;;;11.50;9.75;;;;;3.18;85.78;97830.09;4914906;28;102077;-70
2023/02/01 10:53:13;;;;;;;;;14.75;14.25;;;;;3.25;85.59;97840.91;4915422;28;101975;-72
2023/02/01 10:55:50;;;;;;;;;12.75;11.00;;;;;3.19;86.21;97837.13;4892395;28;102641;-70
2023/02/01 10:58:27;;;;;;;;;15.50;13.25;;;;;3.13;85.69;97840.47;4915209;28;104076;-70
2023/02/01 11:01:05;;;;;;;;;16.25;14.00;;;;;3.13;86.75;97849.31;4916152;28;102315;-70
2023/02/01 11:04:01;;;;;;;;;14.00;12.25;;;;;3.12;87.38;97842.31;4915413;28;101961;-70
2023/02/01 11:06:31;;;;;;;;;10.50;6.50;;;;;3.18;86.71;97842.63;4916116;28;102552;-73
2023/02/01 11:09:09;;;;;;;;;12.50;10.75;;;;;3.20;86.52;97832.63;4930080;28;103959;-72
2023/02/01 11:11:48;;;;;;;;;12.75;10.25;;;;;3.18;87.50;97846.13;4925035;28;102062;-73
2023/02/01 11:14:18;;;;;;;;;11.50;10.50;;;;;2.97;87.77;97835.22;4923426;28;103477;-72
2023/02/01 11:16:53;;;;;;;;;13.75;10.00;;;;;2.80;89.91;97830.91;4917798;28;102962;-72
2023/02/01 11:19:20;;;;;;;;;17.25;13.50;;;;;2.60;90.71;97828.63;4899851;28;111286;-72
2023/02/01 11:21:52;;;;;;;;;17.50;11.50;;;;;2.72;90.09;97828.25;4918496;28;102394;-72
2023/02/01 11:24:40;;;;;;;;;14.50;11.00;;;;;2.66;91.26;97819.91;4902954;28;102250;-72
2023/02/01 11:27:15;;;;;;;;;12.75;10.00;;;;;2.59;91.58;97831.47;4932836;28;102496;-72
2023/02/01 11:29:58;;;;;;;;;10.50;10.50;;;;;2.40;93.96;97819.31;4915090;28;104075;-72
2023/02/01 11:32:25;;;;;;;;;16.75;14.00;;;;;2.53;93.85;97798.28;4905862;28;102237;-72
2023/02/01 11:34:57;;;;;;;;;19.00;11.00;;;;;2.60;92.75;97803.78;4906488;28;102284;-72
2023/02/01 11:37:30;;;;;;;;;9.50;7.00;;;;;2.65;92.92;97804.94;4921324;28;102013;-72
2023/02/01 11:39:59;;;;;;;;;11.50;10.25;;;;;2.60;92.95;97791.28;4904164;28;103761;-72
2023/02/01 11:42:28;;;;;;;;;13.00;11.25;;;;;2.81;93.34;97796.03;4914716;28;103754;-72
2023/02/01 11:45:20;;;;;;;;;15.50;12.50;;;;;2.61;92.24;97750.22;4906716;28;102518;-72
2023/02/01 11:47:52;;;;;;;;;11.50;11.00;;;;;2.97;92.28;97795.97;4928341;28;102322;-72
2023/02/01 11:50:31;;;;;;;;;18.75;14.00;;;;;3.01;91.96;97785.78;4926872;28;104140;-72
2023/02/01 11:53:07;;;;;;;;;16.75;15.00;;;;;3.05;92.14;97784.44;4917502;28;102147;-72
2023/02/01 11:55:52;;;;;;;;;22.00;15.75;;;;;3.09;91.66;97772.41;4920372;28;102131;-73
2023/02/01 11:58:38;;;;;;;;;11.50;10.00;;;;;3.34;90.70;97776.59;4918868;28;102479;-72
2023/02/01 12:01:19;;;;;;;;;15.25;12.00;;;;;3.42;90.03;97770.38;4919275;28;108950;-72
2023/02/01 12:04:24;;;;;;;;;11.25;11.00;;;;;3.51;89.55;97770.13;4918255;28;103254;-72
2023/02/01 12:06:56;;;;;;;;;20.25;18.75;;;;;3.34;88.82;97763.22;4830747;28;102096;-72
2023/02/01 12:09:33;;;;;;;;;18.75;17.00;;;;;3.31;88.90;97768.94;4888238;28;102032;-72